Terminal Aerodrome Forecast
Issued by NWS North Platte, NE

Home | Current Version | Previous Version | Text Only | Print | Product List | Glossary Off
Versions: 1 2 3 4 5 6 7 8 9 10 11 12 13 14 15

894
FTUS43 KLBF 242204 AAA
TAFVTN
TAF AMD
KVTN 242204Z 2422/2518 17011G21KT P6SM SKC
     FM250400 16014G22KT P6SM FEW250 WS020/18040KT
     FM251100 23008KT P6SM SCT200
     FM251400 31010G18KT P6SM BKN200=

USA.gov is the U.S. government's official web portal to all federal, state and local government web resources and services.